Station: Kilmore Gap  

  Atmospheric Gas Attenuation - ITU Rec 676-11   ----------------- dB/100km -----------------
Date Time Temp RH % AH g/m3 Dew Point Wind Direction Speed kph Gust kph Barometer mB Rainfall Since 9am 24GHz 47GHz 76GHz 122GHz 134GHz 241GHz
08/05 12:30 10.6 94 9.18 9.7 32 46 1023.6 0.2 21.0 28.2 44.4 116.6 111.6 384.1
08/05 12:20 10 94 8.83 9.1 32 37 1023.8 0.2 20.3 27.8 43.2 113.4 107.5 369.7
08/05 12:10 10.5 93 9.02 9.4 24 28 1023.9 0.2 20.6 28.0 43.8 114.9 109.5 376.8
08/05 12:00 10.3 90 8.62 8.7 26 46 1023.6 0 19.8 27.4 42.2 110.6 104.1 358.0
08/05 11:50 10.8 88 8.7 8.9 30 41 1023.8 0 19.9 27.4 42.2 110.8 104.6 359.6
08/05 11:40 10.3 91 8.72 8.9 33 44 1023.9 0 20.0 27.6 42.6 111.8 105.6 362.9
08/05 11:30 10.8 90 8.9 9.2 26 44 1023.7 0 20.4 27.7 43.1 113.1 107.4 369.4
08/05 11:20 10.8 89 8.8 9.1 28 33 1023.8 0 20.2 27.5 42.7 111.9 106.0 364.5
08/05 11:10 10.3 90 8.62 8.7 30 35 1023.6 0 19.8 27.4 42.2 110.6 104.1 358.0
08/05 11:00 10.4 90 8.68 8.8 32 50 1023.5 0 19.9 27.4 42.4 111.1 104.8 360.4
08/05 10:50 10.4 88 8.48 8.5 30 35 1023.8 0 19.5 27.1 41.5 108.9 102.1 350.7
08/05 10:40 10.6 87 8.49 8.5 28 39 1023.6 0 19.5 27.1 41.5 108.7 101.9 350.3
08/05 10:30 10.3 100 9.58 10.3 32 46 1023.4 0 21.9 29.0 46.3 121.6 117.8 405.6
08/05 10:20 10.2 97 9.23 9.7 35 43 1023.5 0 21.1 28.5 44.8 117.7 112.9 388.6
08/05 10:10 10 96 9.02 9.4 32 35 1023.4 0 20.7 28.2 44.0 115.6 110.2 379.1
08/05 10:00 10 96 9.02 9.4 28 44 1023.1 0 20.7 28.1 44.0 115.5 110.2 379.0
08/05 09:50 9.9 97 9.06 9.4 24 30 1023.3 0 20.8 28.3 44.3 116.2 110.9 381.5
08/05 09:40 9.7 99 9.13 9.6 32 37 1023.1 0 20.9 28.4 44.7 117.3 112.2 386.0
08/05 09:30 9.6 100 9.16 9.6 30 43 1022.8 0 21.0 28.5 44.8 117.7 112.7 387.9
08/05 09:20 9.6 100 9.16 9.6 26 37 1023 0 21.0 28.5 44.9 117.8 112.7 387.9
08/05 09:10 9.3 100 8.99 9.3 32 41 1023 0 20.6 28.3 44.3 116.2 110.7 380.9
08/05 09:00 9.4 100 9.05 9.4 30 48 1022.8 0 20.8 28.4 44.5 116.8 111.4 383.3
08/05 08:50 9.2 100 8.93 9.2 32 39 1022.9 0.6 20.5 28.2 44.1 115.7 110.0 378.3
08/05 08:40 9.1 100 8.88 9.1 28 37 1022.8 0.6 20.4 28.2 43.9 115.2 109.4 376.3
08/05 08:30 9 100 8.82 9 30 44 1022.6 0.6 20.3 28.1 43.7 114.7 108.7 373.7
08/05 08:20 9 100 8.82 9 35 44 1022.7 0.6 20.3 28.1 43.7 114.7 108.7 373.7
08/05 08:10 9.1 100 8.88 9.1 33 41 1022.5 0.6 20.4 28.2 43.9 115.2 109.4 376.2
08/05 08:00 9.1 100 8.88 9.1 30 43 1022.1 0.6 20.4 28.1 43.9 115.2 109.4 376.1
08/05 07:50 9 100 8.82 9 26 35 1022.2 0.6 20.3 28.1 43.7 114.6 108.6 373.6
08/05 07:40 9 100 8.82 9 26 30 1021.9 0.6 20.3 28.1 43.7 114.6 108.6 373.5
08/05 07:30 9 100 8.82 9 26 43 1021.7 0.6 20.3 28.1 43.7 114.6 108.6 373.4
08/05 07:20 9.1 100 8.88 9.1 24 33 1021.7 0.6 20.4 28.1 43.9 115.1 109.3 376.0
08/05 07:10 9 100 8.82 9 30 39 1021.6 0.4 20.3 28.1 43.6 114.5 108.6 373.4
08/05 07:00 9 100 8.82 9 28 41 1021.3 0.4 20.3 28.0 43.6 114.5 108.6 373.3
08/05 06:50 9.1 100 8.88 9.1 30 35 1021.6 0.4 20.4 28.1 43.9 115.1 109.3 375.9
08/05 06:40 9.1 100 8.88 9.1 30 35 1021.6 0.4 20.4 28.1 43.9 115.1 109.3 375.9
08/05 06:30 9.1 100 8.88 9.1 28 39 1021.4 0.4 20.4 28.1 43.8 115.1 109.3 375.9
08/05 06:20 9.1 100 8.88 9.1 28 35 1021.4 0.4 20.4 28.1 43.8 115.1 109.3 375.9
08/05 06:10 9.1 100 8.88 9.1 22 28 1021.3 0.4 20.4 28.1 43.8 115.1 109.3 375.8
08/05 06:00 9.1 100 8.88 9.1 24 43 1021.1 0.4 20.4 28.1 43.8 115.0 109.3 375.8
08/05 05:50 9.1 99 8.79 9 22 30 1021.2 0.4 20.2 28.0 43.4 114.0 108.0 371.3
08/05 05:40 9.1 99 8.79 9 28 33 1021.3 0.4 20.2 28.0 43.4 114.0 108.0 371.3
08/05 05:30 9.1 100 8.88 9.1 28 39 1021.1 0.4 20.4 28.1 43.8 115.0 109.3 375.8
08/05 05:20 9.1 99 8.79 9 24 30 1021.2 0.4 20.2 28.0 43.4 114.0 108.0 371.3
08/05 05:10 9 99 8.73 8.9 24 37 1020.9 0.4 20.1 27.9 43.2 113.4 107.2 368.7
08/05 05:00 9 99 8.73 8.9 24 37 1020.9 0.4 20.1 27.9 43.2 113.4 107.2 368.7
08/05 04:50 8.9 98 8.59 8.6 20 24 1021 0.4 19.8 27.7 42.7 112.0 105.4 362.2
08/05 04:40 8.9 97 8.5 8.5 22 28 1021 0.4 19.6 27.5 42.3 110.9 104.1 357.8
08/05 04:30 8.9 96 8.41 8.3 20 30 1020.5 0.4 19.4 27.3 41.9 109.8 102.8 353.2
08/05 04:20 8.9 95 8.32 8.1 22 33 1020.5 0.4 19.2 27.2 41.5 108.8 101.5 348.7
08/05 04:10 8.9 94 8.24 8 20 22 1020.7 0.4 19.0 27.0 41.2 107.9 100.4 344.9
08/05 04:00 8.9 94 8.24 8 22 32 1020.4 0.4 19.0 27.0 41.1 107.9 100.4 344.8
08/05 03:50 8.8 94 8.18 7.9 22 26 1020.6 0.4 18.9 27.0 41.0 107.4 99.7 342.3
08/05 03:40 8.8 93 8.1 7.7 20 26 1020.6 0.4 18.7 26.8 40.6 106.5 98.6 338.4
08/05 03:30 9 90 7.94 7.5 20 30 1020.3 0 18.4 26.5 39.8 104.4 96.1 329.7
08/05 03:20 9.1 89 7.9 7.4 20 28 1020.3 0 18.3 26.4 39.6 103.8 95.4 327.3
08/05 03:10 9 89 7.85 7.3 19 26 1020.3 0 18.2 26.3 39.4 103.3 94.9 325.3
08/05 03:00 9 88 7.76 7.1 22 32 1020.2 0 18.0 26.2 39.1 102.3 93.6 321.0
08/05 02:50 9 88 7.76 7.1 22 30 1020.5 0 18.0 26.2 39.1 102.4 93.6 321.1
08/05 02:40 8.9 88 7.71 7 22 28 1020.5 0 17.9 26.1 38.9 101.9 93.1 319.1
08/05 02:30 8.9 88 7.71 7 24 35 1020.3 0 17.9 26.1 38.9 101.9 93.0 319.0
08/05 02:20 8.7 88 7.61 6.8 22 28 1020.6 0 17.7 26.0 38.6 101.1 91.9 315.1
08/05 02:10 8.7 88 7.61 6.8 28 32 1020.6 0 17.7 26.0 38.6 101.1 91.9 315.1
08/05 02:00 8.5 89 7.6 6.8 28 35 1020.5 0 17.7 26.1 38.7 101.2 92.0 315.4
08/05 01:50 8.3 89 7.5 6.6 24 30 1020.7 0 17.5 26.0 38.3 100.4 90.9 311.4
08/05 01:40 8.3 89 7.5 6.6 24 28 1020.6 0 17.5 26.0 38.3 100.4 90.9 311.4
08/05 01:30 8.5 89 7.6 6.8 28 39 1020.4 0 17.7 26.1 38.6 101.2 92.0 315.4
08/05 01:20 8.5 89 7.6 6.8 24 32 1020.8 0 17.7 26.1 38.7 101.3 92.1 315.5
08/05 01:10 8.7 88 7.61 6.8 26 32 1020.9 0 17.7 26.0 38.6 101.1 92.0 315.2
08/05 01:00 8.7 88 7.61 6.8 26 44 1020.8 0 17.7 26.0 38.6 101.1 92.0 315.1
08/05 00:50 8.7 87 7.53 6.7 26 32 1021.1 0 17.5 25.9 38.3 100.3 90.9 311.4
08/05 00:40 8.6 88 7.56 6.7 24 28 1021.1 0 17.6 26.0 38.5 100.7 91.4 313.2
08/05 00:30 8.5 88 7.52 6.6 28 41 1020.9 0 17.5 26.0 38.3 100.4 91.0 311.6
08/05 00:20 8.6 87 7.48 6.6 32 35 1021.1 0 17.4 25.9 38.1 99.8 90.3 309.4
08/05 00:10 8.5 87 7.43 6.5 26 33 1021.2 0 17.3 25.8 38.0 99.4 89.8 307.4
08/05 00:00 8.5 87 7.43 6.5 26 37 1021.1 0 17.3 25.8 38.0 99.4 89.7 307.4
07/05 23:50 8.4 87 7.38 6.4 24 30 1021.4 0 17.2 25.8 37.8 99.0 89.2 305.5
07/05 23:40 8.4 87 7.38 6.4 22 26 1021.5 0 17.2 25.8 37.8 99.0 89.2 305.5
07/05 23:30 8.2 87 7.29 6.2 26 35 1021.6 0 17.0 25.7 37.6 98.3 88.2 302.0
07/05 23:20 8.1 87 7.24 6.1 24 35 1021.8 0 16.9 25.6 37.4 97.9 87.7 300.0
07/05 23:10 8 87 7.2 6 26 37 1021.8 0 16.8 25.6 37.3 97.6 87.2 298.5
07/05 23:00 7.9 87 7.15 5.9 22 35 1021.9 0 16.7 25.5 37.1 97.1 86.7 296.5
07/05 22:50 7.8 87 7.1 5.8 19 26 1022 0 16.6 25.5 37.0 96.7 86.1 294.5
07/05 22:40 7.8 86 7.02 5.6 22 30 1022 0 16.5 25.4 36.6 95.8 85.0 290.7
07/05 22:30 7.7 86 6.98 5.5 22 32 1022.1 0 16.4 25.3 36.5 95.5 84.6 289.2
07/05 22:20 7.7 86 6.98 5.5 20 24 1022.3 0 16.4 25.3 36.5 95.5 84.6 289.2
07/05 22:10 7.5 86 6.89 5.3 20 24 1022.5 0 16.2 25.3 36.3 94.8 83.6 285.7
07/05 22:00 7.5 86 6.89 5.3 20 30 1022.4 0 16.2 25.2 36.3 94.8 83.6 285.7
07/05 21:50 7.4 87 6.92 5.4 20 28 1022.6 0 16.3 25.3 36.4 95.3 84.1 287.6
07/05 21:40 7.3 87 6.88 5.3 17 24 1022.5 0 16.2 25.3 36.3 95.0 83.7 286.0
07/05 21:30 7.2 86 6.75 5 20 28 1022.3 0 15.9 25.1 35.8 93.6 82.0 280.1
07/05 21:20 7.2 87 6.83 5.2 19 20 1022.5 0 16.1 25.2 36.2 94.5 83.1 284.0
07/05 21:10 7.2 86 6.75 5 20 24 1022.5 0 15.9 25.1 35.8 93.6 82.0 280.2
07/05 21:00 7.3 83 6.56 4.6 26 37 1022.3 0 15.5 24.8 35.0 91.4 79.4 270.8
07/05 20:50 7.3 83 6.56 4.6 24 30 1022.6 0 15.5 24.8 35.0 91.5 79.4 270.8
07/05 20:40 7.2 83 6.52 4.5 19 22 1023 0 15.4 24.7 34.9 91.2 79.0 269.4
07/05 20:30 7.1 84 6.55 4.6 19 28 1022.7 0 15.5 24.8 35.1 91.6 79.5 271.1
07/05 20:20 7.1 84 6.55 4.6 20 24 1022.9 0 15.5 24.8 35.1 91.6 79.5 271.1
07/05 20:10 7 84 6.51 4.5 13 17 1023 0 15.4 24.8 35.0 91.3 79.0 269.6
07/05 20:00 7 84 6.51 4.5 19 32 1022.7 0 15.4 24.8 34.9 91.3 79.0 269.5

Last Refresh: 08-May-2026 12:07:29

Bureau of Meteorology